Time;durP1;ratioP1;P1;durP2;ratioP2;P2;SDS_P1;SDS_P2;PMS_P1;PMS_P2;Temp;Humidity;BMP_temperature;BMP_pressure;BME280_temperature;BME280_humidity;BME280_pressure;Samples;Min_cycle;Max_cycle;Signal;HPM_P1;HPM_P2
2021/07/17 00:00:01;;;;;;;20.42;16.77;;;19.20;99.90;;;;;;5058769;28;20208;-64
2021/07/17 00:02:26;;;;;;;20.47;18.37;;;19.40;99.90;;;;;;5059360;28;20245;-64
2021/07/17 00:04:52;;;;;;;18.90;16.07;;;19.20;99.90;;;;;;5056862;28;20189;-64
2021/07/17 00:07:18;;;;;;;19.03;16.93;;;19.20;99.90;;;;;;5069370;28;20197;-62
2021/07/17 00:09:43;;;;;;;21.27;18.57;;;19.10;99.90;;;;;;5062383;28;20212;-63
2021/07/17 00:12:09;;;;;;;21.33;17.00;;;19.20;99.90;;;;;;5064028;28;20606;-63
2021/07/17 00:14:35;;;;;;;22.85;16.75;;;18.90;99.90;;;;;;5068720;28;20259;-62
2021/07/17 00:17:01;;;;;;;24.60;17.10;;;18.90;99.90;;;;;;5068277;28;20271;-64
2021/07/17 00:19:27;;;;;;;19.43;17.30;;;18.80;99.90;;;;;;5059588;28;20579;-63
2021/07/17 00:21:52;;;;;;;21.70;17.67;;;18.80;99.90;;;;;;5055632;28;20471;-62
2021/07/17 00:24:19;;;;;;;20.50;17.83;;;18.70;99.90;;;;;;5055126;28;20243;-62
2021/07/17 00:26:44;;;;;;;25.15;18.70;;;18.80;99.90;;;;;;5064039;28;20194;-63
2021/07/17 00:29:10;;;;;;;19.40;16.10;;;18.70;99.90;;;;;;5060909;28;20284;-64
2021/07/17 00:31:36;;;;;;;20.67;17.40;;;18.70;99.90;;;;;;5065631;28;20181;-64
2021/07/17 00:34:01;;;;;;;24.20;18.03;;;18.80;99.90;;;;;;5059549;28;20575;-63
2021/07/17 00:36:30;;;;;;;23.77;18.27;;;18.70;99.90;;;;;;5056528;28;20181;-64
2021/07/17 00:38:56;;;;;;;22.67;18.25;;;18.70;99.90;;;;;;5059785;28;20593;-64
2021/07/17 00:41:21;;;;;;;23.03;18.40;;;18.70;99.90;;;;;;5059159;28;20166;-64
2021/07/17 00:43:47;;;;;;;22.00;18.70;;;18.70;99.90;;;;;;5060667;28;20185;-63
2021/07/17 00:46:13;;;;;;;20.73;17.67;;;18.80;99.90;;;;;;5064432;28;20177;-63
2021/07/17 00:48:39;;;;;;;22.30;17.97;;;18.80;99.90;;;;;;5065765;28;20200;-64
2021/07/17 00:51:05;;;;;;;25.23;17.75;;;18.90;99.90;;;;;;5054962;28;20451;-64
2021/07/17 00:53:31;;;;;;;23.43;18.07;;;19.00;99.90;;;;;;5065242;28;20622;-62
2021/07/17 00:55:58;;;;;;;23.07;17.60;;;18.70;99.90;;;;;;5060581;28;20442;-62
2021/07/17 00:58:27;;;;;;;20.30;17.40;;;18.80;99.90;;;;;;5055293;28;20188;-63
2021/07/17 01:00:55;;;;;;;21.08;17.42;;;18.80;99.90;;;;;;5054718;28;20302;-64
2021/07/17 01:03:21;;;;;;;21.17;16.25;;;18.70;99.90;;;;;;5058585;28;20177;-62
2021/07/17 01:05:47;;;;;;;20.63;17.70;;;18.90;99.90;;;;;;5059046;28;20239;-61
2021/07/17 01:08:13;;;;;;;22.17;17.20;;;18.80;99.90;;;;;;5059770;28;20201;-61
2021/07/17 01:10:39;;;;;;;20.27;17.20;;;18.70;99.90;;;;;;5063744;28;20208;-62
2021/07/17 01:13:05;;;;;;;19.95;16.92;;;18.70;99.90;;;;;;5055561;28;20271;-62
2021/07/17 01:15:31;;;;;;;17.70;15.70;;;18.80;99.90;;;;;;5061821;28;20277;-62
2021/07/17 01:17:57;;;;;;;21.97;17.17;;;18.80;99.90;;;;;;5061485;28;20473;-62
2021/07/17 01:20:23;;;;;;;22.43;17.90;;;18.80;99.90;;;;;;5059543;28;20208;-62
2021/07/17 01:22:50;;;;;;;20.50;16.75;;;18.90;99.90;;;;;;5059823;28;20525;-62
2021/07/17 01:25:25;;;;;;;20.05;16.17;;;19.00;99.90;;;;;;5060824;28;20181;-62
2021/07/17 01:27:52;;;;;;;19.63;15.35;;;19.10;99.90;;;;;;5058557;28;20299;-62
2021/07/17 01:30:20;;;;;;;21.48;15.93;;;19.00;99.90;;;;;;5065578;28;20237;-62
2021/07/17 01:32:46;;;;;;;19.10;17.00;;;19.10;99.90;;;;;;5059576;28;20276;-62
2021/07/17 01:35:12;;;;;;;22.25;18.27;;;19.20;99.90;;;;;;5064337;28;20575;-62
2021/07/17 01:37:41;;;;;;;18.40;16.40;;;19.20;99.90;;;;;;5055942;28;20176;-62
2021/07/17 01:40:10;;;;;;;22.48;18.10;;;19.20;99.90;;;;;;5050394;28;20228;-62
2021/07/17 01:42:37;;;;;;;20.27;16.48;;;19.20;99.90;;;;;;5054443;28;20276;-62
2021/07/17 01:45:05;;;;;;;22.27;16.58;;;19.20;99.90;;;;;;5067705;28;20184;-63
2021/07/17 01:47:31;;;;;;;19.50;17.10;;;19.10;99.90;;;;;;5067690;28;20228;-63
2021/07/17 01:49:58;;;;;;;19.77;16.83;;;19.00;99.90;;;;;;5061671;28;20709;-62
2021/07/17 01:52:27;;;;;;;20.70;15.60;;;18.90;99.90;;;;;;5053697;28;20169;-63
2021/07/17 01:54:53;;;;;;;20.10;16.73;;;18.80;99.90;;;;;;5057852;28;20537;-62
2021/07/17 01:57:18;;;;;;;21.63;16.07;;;19.10;99.90;;;;;;5060240;28;20181;-63
2021/07/17 01:59:45;;;;;;;20.90;17.47;;;19.00;99.90;;;;;;5064349;28;20485;-63
2021/07/17 02:02:12;;;;;;;21.33;18.05;;;18.90;99.90;;;;;;5060111;28;20291;-63
2021/07/17 02:04:37;;;;;;;21.23;17.27;;;18.50;99.90;;;;;;5083100;28;20700;-63
2021/07/17 02:07:04;;;;;;;21.27;16.47;;;19.00;99.90;;;;;;5050517;28;20205;-63
2021/07/17 02:09:30;;;;;;;21.17;16.98;;;19.00;99.90;;;;;;5057401;28;20757;-63
2021/07/17 02:11:56;;;;;;;19.73;16.25;;;19.10;99.90;;;;;;5058639;28;20212;-62
2021/07/17 02:14:22;;;;;;;17.80;15.40;;;18.90;99.90;;;;;;5061541;28;20181;-62
2021/07/17 02:16:48;;;;;;;17.67;14.90;;;19.10;99.90;;;;;;5059415;28;20830;-63
2021/07/17 02:19:19;;;;;;;18.37;16.47;;;19.00;99.90;;;;;;5057214;28;20562;-61
2021/07/17 02:21:50;;;;;;;19.45;15.93;;;18.90;99.90;;;;;;5061126;28;20181;-60
2021/07/17 02:24:16;;;;;;;20.02;16.40;;;18.90;99.90;;;;;;5058204;28;20184;-61
2021/07/17 02:26:43;;;;;;;19.50;16.92;;;18.90;99.90;;;;;;5065374;28;20200;-61
2021/07/17 02:29:10;;;;;;;19.65;16.77;;;18.90;99.90;;;;;;5061872;28;20343;-61
2021/07/17 02:31:36;;;;;;;20.17;17.05;;;18.80;99.90;;;;;;5061777;28;20246;-60
2021/07/17 02:34:04;;;;;;;22.45;17.08;;;18.80;99.90;;;;;;5081749;28;20696;-61
2021/07/17 02:36:32;;;;;;;21.15;17.30;;;18.80;99.90;;;;;;5056513;28;20204;-60
2021/07/17 02:38:58;;;;;;;18.92;16.80;;;18.80;99.90;;;;;;5054231;28;20177;-62
2021/07/17 02:41:24;;;;;;;22.75;17.23;;;18.90;99.90;;;;;;5056535;28;20705;-61
2021/07/17 02:43:50;;;;;;;23.70;16.90;;;18.90;99.90;;;;;;5058030;28;20268;-61
2021/07/17 02:46:16;;;;;;;21.13;16.92;;;18.90;99.90;;;;;;5065641;28;20287;-61
2021/07/17 02:48:42;;;;;;;20.38;15.70;;;18.90;99.90;;;;;;5054137;28;20197;-61
2021/07/17 02:51:08;;;;;;;23.20;18.70;;;19.00;99.90;;;;;;5061946;28;20662;-61
2021/07/17 02:53:34;;;;;;;21.40;16.73;;;18.80;99.90;;;;;;5064292;28;20318;-62
2021/07/17 02:56:00;;;;;;;19.63;16.65;;;18.80;99.90;;;;;;5060219;28;20234;-61
2021/07/17 02:58:25;;;;;;;18.00;14.93;;;18.90;99.90;;;;;;5060369;28;20189;-61
2021/07/17 03:00:54;;;;;;;19.43;16.80;;;18.90;99.90;;;;;;5062493;28;20685;-61
2021/07/17 03:03:21;;;;;;;20.02;15.60;;;18.90;99.90;;;;;;5062288;28;20560;-61
2021/07/17 03:05:47;;;;;;;18.08;16.13;;;18.90;99.90;;;;;;5064504;28;20249;-62
2021/07/17 03:08:15;;;;;;;20.03;15.53;;;19.00;99.90;;;;;;5058668;28;20299;-62
2021/07/17 03:10:41;;;;;;;18.25;13.85;;;19.00;99.90;;;;;;5059555;28;20461;-61
2021/07/17 03:13:07;;;;;;;23.60;15.83;;;19.10;99.90;;;;;;5063302;28;20185;-62
2021/07/17 03:15:32;;;;;;;20.03;16.00;;;19.10;99.90;;;;;;5068499;28;20433;-61
2021/07/17 03:17:58;;;;;;;18.20;15.27;;;19.00;99.90;;;;;;5057519;28;20222;-60
2021/07/17 03:20:24;;;;;;;17.67;15.70;;;19.10;99.90;;;;;;5063463;28;20212;-61
2021/07/17 03:22:49;;;;;;;17.40;15.23;;;19.00;99.90;;;;;;5062367;28;20185;-61
2021/07/17 03:25:15;;;;;;;18.87;16.00;;;19.00;99.90;;;;;;5068365;28;20190;-60
2021/07/17 03:27:41;;;;;;;19.97;15.37;;;19.00;99.90;;;;;;5062412;28;20694;-62
2021/07/17 03:30:07;;;;;;;21.77;18.90;;;19.00;99.90;;;;;;5057016;28;20955;-61
2021/07/17 03:32:33;;;;;;;18.48;16.08;;;19.20;99.90;;;;;;5064264;28;20185;-61
2021/07/17 03:34:59;;;;;;;18.73;15.80;;;19.00;99.90;;;;;;5055913;28;20730;-61
2021/07/17 03:37:24;;;;;;;17.53;15.67;;;18.90;99.90;;;;;;5051431;28;20679;-61
2021/07/17 03:39:51;;;;;;;19.60;16.37;;;18.70;99.90;;;;;;5063386;28;20205;-61
2021/07/17 03:42:16;;;;;;;19.90;16.67;;;19.10;99.90;;;;;;5060159;28;20216;-61
2021/07/17 03:44:42;;;;;;;22.80;17.63;;;18.90;99.90;;;;;;5066248;28;20622;-61
2021/07/17 03:47:07;;;;;;;21.20;16.20;;;18.80;99.90;;;;;;5064977;28;20258;-61
2021/07/17 03:49:33;;;;;;;22.80;18.53;;;18.80;99.90;;;;;;5066169;28;20233;-61
2021/07/17 03:51:59;;;;;;;19.50;16.20;;;18.60;99.90;;;;;;5052281;28;20862;-61
2021/07/17 03:54:25;;;;;;;23.80;17.57;;;18.40;99.90;;;;;;5062484;28;20268;-61
2021/07/17 03:56:51;;;;;;;18.80;16.30;;;18.50;99.90;;;;;;5068160;28;20180;-61
2021/07/17 03:59:17;;;;;;;18.00;16.07;;;18.50;99.90;;;;;;5057307;28;20208;-61
2021/07/17 04:01:42;;;;;;;20.60;16.90;;;18.70;99.90;;;;;;5061416;28;20536;-61
2021/07/17 04:04:11;;;;;;;18.93;16.10;;;18.70;99.90;;;;;;5061635;28;20622;-61
2021/07/17 04:06:37;;;;;;;22.75;16.98;;;18.70;99.90;;;;;;5061083;28;20184;-63
2021/07/17 04:09:04;;;;;;;18.20;15.50;;;18.70;99.90;;;;;;5061637;28;20189;-63
2021/07/17 04:11:29;;;;;;;22.88;16.50;;;18.70;99.90;;;;;;5059590;28;20217;-63
2021/07/17 04:13:55;;;;;;;20.40;18.20;;;18.60;99.90;;;;;;5056798;28;20651;-63
2021/07/17 04:16:21;;;;;;;18.40;15.53;;;18.70;99.90;;;;;;5057683;28;20181;-63
2021/07/17 04:18:46;;;;;;;21.20;15.30;;;18.60;99.90;;;;;;5061411;28;20675;-63
2021/07/17 04:21:12;;;;;;;19.33;16.40;;;18.60;99.90;;;;;;5056029;28;20225;-63
2021/07/17 04:23:41;;;;;;;18.48;16.48;;;18.60;99.90;;;;;;5056210;28;20189;-62
2021/07/17 04:26:08;;;;;;;19.88;17.83;;;18.90;99.90;;;;;;5060537;28;20181;-63
2021/07/17 04:28:34;;;;;;;19.63;16.75;;;18.80;99.90;;;;;;5059554;28;20208;-63
2021/07/17 04:31:01;;;;;;;18.48;15.60;;;18.80;99.90;;;;;;5060235;28;20201;-63
2021/07/17 04:33:27;;;;;;;20.10;15.95;;;18.90;99.90;;;;;;5060358;28;20192;-63
2021/07/17 04:35:52;;;;;;;19.10;14.97;;;19.00;99.90;;;;;;5060722;28;20177;-62
2021/07/17 04:38:18;;;;;;;21.60;18.30;;;18.90;99.90;;;;;;5054852;28;20194;-62
2021/07/17 04:40:44;;;;;;;20.90;17.30;;;18.80;99.90;;;;;;5064407;28;20202;-62
2021/07/17 04:43:09;;;;;;;19.67;16.20;;;18.90;99.90;;;;;;5058384;28;20447;-63
2021/07/17 04:45:35;;;;;;;17.87;15.83;;;18.90;99.90;;;;;;5069904;28;20190;-64
2021/07/17 04:48:04;;;;;;;19.27;17.17;;;19.00;99.90;;;;;;5064164;28;20218;-63
2021/07/17 04:50:31;;;;;;;20.65;16.95;;;19.00;99.90;;;;;;5054107;28;20539;-64
2021/07/17 04:52:56;;;;;;;18.88;15.80;;;18.90;99.90;;;;;;5060695;28;20218;-63
2021/07/17 04:55:22;;;;;;;20.90;15.63;;;18.80;99.90;;;;;;5062894;28;20181;-64
2021/07/17 04:57:47;;;;;;;21.60;18.00;;;19.00;99.90;;;;;;5066524;28;20189;-63
2021/07/17 05:00:14;;;;;;;17.00;14.00;;;19.00;99.90;;;;;;5056875;28;20220;-63
2021/07/17 05:02:50;;;;;;;17.05;14.27;;;19.10;99.90;;;;;;5065333;28;20275;-63
2021/07/17 05:05:19;;;;;;;18.95;16.00;;;19.10;99.90;;;;;;5064861;28;20273;-63
2021/07/17 05:07:46;;;;;;;16.88;15.10;;;19.20;99.90;;;;;;5070115;28;20565;-64
2021/07/17 05:10:17;;;;;;;18.90;16.27;;;19.20;99.90;;;;;;5055276;28;20197;-63
2021/07/17 05:12:43;;;;;;;17.58;15.68;;;19.20;99.90;;;;;;5062131;28;20537;-64
2021/07/17 05:15:13;;;;;;;14.27;12.53;;;19.20;99.90;;;;;;5058497;28;20185;-64
2021/07/17 05:17:39;;;;;;;15.60;14.00;;;19.30;99.90;;;;;;5059942;28;20184;-64
2021/07/17 05:20:08;;;;;;;13.60;12.20;;;19.20;99.90;;;;;;5055344;28;20205;-64
2021/07/17 05:22:34;;;;;;;19.65;16.23;;;19.20;99.90;;;;;;5057270;28;20734;-57
2021/07/17 05:25:00;;;;;;;18.70;15.52;;;19.20;99.90;;;;;;5066280;28;20664;-56
2021/07/17 05:27:26;;;;;;;18.13;15.55;;;19.10;99.90;;;;;;5065160;28;20235;-56
2021/07/17 05:29:52;;;;;;;20.63;16.47;;;19.20;99.90;;;;;;5058919;28;20224;-56
2021/07/17 05:32:18;;;;;;;18.33;14.93;;;19.20;99.90;;;;;;5059033;28;20173;-57
2021/07/17 05:34:44;;;;;;;17.88;14.73;;;19.30;99.90;;;;;;5058094;28;20196;-56
2021/07/17 05:37:10;;;;;;;18.90;15.40;;;19.30;99.90;;;;;;5067331;28;20275;-57
2021/07/17 05:39:37;;;;;;;18.15;15.18;;;19.30;99.90;;;;;;5057140;28;20693;-56
2021/07/17 05:42:03;;;;;;;17.42;15.60;;;19.10;99.90;;;;;;5064208;28;20562;-56
2021/07/17 05:44:29;;;;;;;19.70;15.88;;;19.10;99.90;;;;;;5065498;28;20213;-56
2021/07/17 05:46:55;;;;;;;17.73;15.90;;;19.10;99.90;;;;;;5057056;28;20215;-56
2021/07/17 05:49:20;;;;;;;19.40;16.40;;;19.20;99.90;;;;;;5061059;28;20547;-56
2021/07/17 05:51:46;;;;;;;18.80;15.20;;;19.20;99.90;;;;;;5058190;28;20184;-57
2021/07/17 05:54:13;;;;;;;16.63;14.93;;;19.20;99.90;;;;;;5054731;28;20203;-57
2021/07/17 05:56:38;;;;;;;17.92;16.15;;;19.30;99.90;;;;;;5060183;28;20184;-57
2021/07/17 05:59:04;;;;;;;22.27;16.73;;;19.30;99.90;;;;;;5070808;28;20193;-57
2021/07/17 06:01:30;;;;;;;17.60;15.70;;;19.20;99.90;;;;;;5056134;28;20635;-56
2021/07/17 06:03:55;;;;;;;16.90;14.93;;;19.20;99.90;;;;;;5063923;28;20287;-57
2021/07/17 06:06:22;;;;;;;16.57;14.83;;;19.50;99.90;;;;;;5065561;28;20445;-57
2021/07/17 06:08:47;;;;;;;19.95;15.50;;;19.30;99.90;;;;;;5059521;28;20209;-57
2021/07/17 06:11:13;;;;;;;17.20;15.40;;;19.20;99.90;;;;;;5051794;28;20169;-57
2021/07/17 06:13:39;;;;;;;17.20;15.37;;;19.40;99.90;;;;;;5057678;28;20234;-57
2021/07/17 06:16:04;;;;;;;17.40;13.40;;;19.50;99.90;;;;;;5058289;28;20663;-57
2021/07/17 06:18:30;;;;;;;18.57;16.03;;;19.60;99.90;;;;;;5056948;28;20265;-57
2021/07/17 06:20:56;;;;;;;20.03;14.90;;;19.60;99.90;;;;;;5054136;28;20450;-56
2021/07/17 06:23:21;;;;;;;17.37;15.60;;;19.40;99.90;;;;;;5059586;28;20650;-57
2021/07/17 06:25:47;;;;;;;17.77;14.07;;;19.50;99.90;;;;;;5060097;28;20193;-56
2021/07/17 06:28:12;;;;;;;16.27;14.57;;;19.50;99.90;;;;;;5055629;28;20221;-56
2021/07/17 06:30:38;;;;;;;16.40;14.53;;;19.40;99.90;;;;;;5068363;28;20657;-56
2021/07/17 06:33:04;;;;;;;19.33;14.27;;;19.60;99.90;;;;;;5069341;28;20180;-57
2021/07/17 06:35:29;;;;;;;16.47;14.87;;;19.60;99.90;;;;;;5064446;28;20568;-57
2021/07/17 06:37:55;;;;;;;16.90;14.50;;;19.50;99.90;;;;;;5060704;28;20181;-56
2021/07/17 06:40:21;;;;;;;18.97;15.37;;;19.60;99.90;;;;;;5062668;28;20213;-57
2021/07/17 06:42:49;;;;;;;17.43;15.60;;;19.60;99.90;;;;;;5067075;28;20189;-57
2021/07/17 06:45:17;;;;;;;18.98;15.45;;;19.60;99.90;;;;;;5061097;28;20237;-57
2021/07/17 06:47:43;;;;;;;17.05;15.13;;;19.50;99.90;;;;;;5057832;28;20279;-56
2021/07/17 06:50:10;;;;;;;17.98;14.45;;;19.40;99.90;;;;;;5066693;28;20666;-56
2021/07/17 06:52:36;;;;;;;17.35;14.95;;;19.50;99.90;;;;;;5063685;28;20675;-57
2021/07/17 06:55:07;;;;;;;15.67;13.87;;;19.60;99.90;;;;;;5059830;28;20180;-56
2021/07/17 06:57:35;;;;;;;17.35;14.73;;;19.50;99.90;;;;;;5061907;28;20188;-57
2021/07/17 07:00:01;;;;;;;16.90;15.20;;;19.60;99.90;;;;;;5067202;28;20270;-56
2021/07/17 07:02:26;;;;;;;18.43;14.83;;;19.40;99.90;;;;;;5061305;28;20185;-56
2021/07/17 07:04:52;;;;;;;16.43;14.47;;;19.60;99.90;;;;;;5061110;28;20188;-56
2021/07/17 07:07:18;;;;;;;16.10;14.40;;;19.50;99.90;;;;;;5067226;28;20288;-56
2021/07/17 07:09:44;;;;;;;16.37;14.47;;;19.80;99.90;;;;;;5060297;28;20779;-58
2021/07/17 07:12:10;;;;;;;17.20;15.23;;;19.80;99.90;;;;;;5060872;28;20566;-57
2021/07/17 07:14:35;;;;;;;16.50;13.77;;;19.80;99.90;;;;;;5057153;28;20177;-56
2021/07/17 07:17:01;;;;;;;17.53;14.40;;;20.00;99.90;;;;;;5060991;28;20197;-56
2021/07/17 07:19:32;;;;;;;18.10;14.07;;;19.90;99.90;;;;;;5059201;28;20354;-56
2021/07/17 07:21:58;;;;;;;18.23;13.63;;;19.90;99.90;;;;;;5057595;28;20173;-57
2021/07/17 07:24:30;;;;;;;20.03;14.67;;;20.10;99.90;;;;;;5055514;28;20208;-57
2021/07/17 07:26:57;;;;;;;20.58;15.23;;;20.10;99.90;;;;;;5060970;28;20582;-57
2021/07/17 07:29:24;;;;;;;17.10;14.00;;;20.20;99.90;;;;;;5054278;28;20205;-57
2021/07/17 07:31:50;;;;;;;15.77;14.10;;;20.10;99.90;;;;;;5063759;28;20284;-57
2021/07/17 07:34:16;;;;;;;16.02;14.43;;;20.20;99.90;;;;;;5068671;28;20641;-56
2021/07/17 07:36:42;;;;;;;15.10;12.98;;;20.20;99.90;;;;;;5059733;28;20474;-57
2021/07/17 07:39:08;;;;;;;18.97;15.20;;;20.30;99.90;;;;;;5056777;28;20285;-57
2021/07/17 07:41:35;;;;;;;16.65;14.45;;;20.30;99.90;;;;;;5062564;28;20632;-57
2021/07/17 07:44:01;;;;;;;17.60;14.82;;;20.30;99.90;;;;;;5061849;28;20178;-56
2021/07/17 07:46:27;;;;;;;17.60;14.60;;;20.20;99.90;;;;;;5063736;28;20691;-57
2021/07/17 07:48:53;;;;;;;19.30;15.52;;;20.10;99.90;;;;;;5051563;28;20211;-56
2021/07/17 07:51:18;;;;;;;16.70;14.80;;;20.10;99.90;;;;;;5062553;28;20500;-57
2021/07/17 07:53:44;;;;;;;18.47;14.27;;;20.20;99.90;;;;;;5060241;28;20181;-56
2021/07/17 07:56:10;;;;;;;18.07;14.30;;;20.30;99.90;;;;;;5064060;28;20178;-57
2021/07/17 07:58:35;;;;;;;16.50;14.67;;;20.30;99.90;;;;;;5058883;28;20689;-56
2021/07/17 08:01:01;;;;;;;14.07;12.63;;;20.30;99.90;;;;;;5055712;28;20216;-56
2021/07/17 08:03:26;;;;;;;15.67;13.20;;;20.40;99.90;;;;;;5064829;28;20216;-57
2021/07/17 08:05:52;;;;;;;17.47;14.30;;;20.40;99.90;;;;;;5064372;28;20177;-57
2021/07/17 08:08:18;;;;;;;16.93;14.33;;;20.40;99.90;;;;;;5063162;28;20197;-56
2021/07/17 08:10:43;;;;;;;16.43;14.70;;;20.50;99.90;;;;;;5061187;28;20291;-58
2021/07/17 08:13:09;;;;;;;18.20;15.30;;;20.30;99.90;;;;;;5054836;28;21637;-58
2021/07/17 08:15:35;;;;;;;18.57;15.37;;;20.40;99.90;;;;;;5060161;28;20190;-58
2021/07/17 08:18:00;;;;;;;18.47;15.17;;;20.10;99.90;;;;;;5057026;28;20179;-57
2021/07/17 08:20:26;;;;;;;17.30;15.50;;;20.20;99.90;;;;;;5062525;28;20213;-56
2021/07/17 08:22:52;;;;;;;18.33;16.52;;;20.10;99.90;;;;;;5058458;28;20185;-58
2021/07/17 08:25:18;;;;;;;22.43;17.10;;;20.10;99.90;;;;;;5054216;28;20299;-57
2021/07/17 08:27:44;;;;;;;19.05;16.98;;;19.90;99.90;;;;;;5062041;28;20213;-57
2021/07/17 08:30:11;;;;;;;26.63;23.90;;;19.90;99.90;;;;;;5059528;28;20217;-56
2021/07/17 08:32:38;;;;;;;17.98;15.85;;;19.90;99.90;;;;;;5058018;28;20181;-56
2021/07/17 08:35:05;;;;;;;21.45;16.08;;;19.90;99.90;;;;;;5056764;28;20193;-58
2021/07/17 08:37:34;;;;;;;21.65;16.80;;;19.90;99.90;;;;;;5061283;28;20685;-56
2021/07/17 08:40:03;;;;;;;19.75;17.65;;;19.90;99.90;;;;;;5056535;28;20259;-57
2021/07/17 08:42:33;;;;;;;20.73;17.77;;;19.80;99.90;;;;;;5056507;28;20196;-56
2021/07/17 08:45:01;;;;;;;20.10;16.65;;;19.80;99.90;;;;;;5063056;28;20185;-56
2021/07/17 08:47:30;;;;;;;20.33;16.23;;;19.70;99.90;;;;;;5064007;28;20267;-56
2021/07/17 08:49:57;;;;;;;20.92;16.80;;;19.70;99.90;;;;;;5062056;28;20288;-56
2021/07/17 08:52:23;;;;;;;22.52;16.05;;;19.70;99.90;;;;;;5060617;28;20650;-56
2021/07/17 08:54:49;;;;;;;22.73;17.30;;;19.90;99.90;;;;;;5063197;28;20261;-57
2021/07/17 08:57:15;;;;;;;20.70;16.90;;;19.80;99.90;;;;;;5062235;28;20291;-57
2021/07/17 08:59:41;;;;;;;21.67;18.13;;;19.90;99.90;;;;;;5065052;28;20569;-58
2021/07/17 09:02:07;;;;;;;19.77;16.50;;;20.30;99.90;;;;;;5056752;28;20189;-57
2021/07/17 09:04:33;;;;;;;19.55;15.52;;;20.20;99.90;;;;;;5064468;28;20181;-57
2021/07/17 09:06:59;;;;;;;20.70;16.63;;;20.40;99.90;;;;;;5062210;28;20707;-56
2021/07/17 09:09:42;;;;;;;20.00;16.20;;;20.50;99.90;;;;;;5058043;28;20542;-57
2021/07/17 09:12:25;;;;;;;20.30;17.48;;;20.70;99.90;;;;;;5054220;28;20173;-56
2021/07/17 09:14:52;;;;;;;18.33;16.42;;;21.00;99.90;;;;;;5055611;28;20244;-56
2021/07/17 09:17:25;;;;;;;17.75;15.35;;;21.00;99.90;;;;;;5057101;28;20218;-56
2021/07/17 09:19:59;;;;;;;16.48;14.68;;;21.00;99.90;;;;;;5059531;28;20205;-56
2021/07/17 09:22:38;;;;;;;17.80;14.32;;;21.00;99.90;;;;;;5051229;28;20228;-57
2021/07/17 09:25:12;;;;;;;20.13;17.83;;;21.00;99.90;;;;;;5056320;28;20201;-57
2021/07/17 09:27:38;;;;;;;15.80;14.32;;;20.70;99.90;;;;;;5066532;28;20316;-56
2021/07/17 09:30:24;;;;;;;18.80;15.47;;;20.80;99.90;;;;;;5057475;28;20359;-56
2021/07/17 09:33:01;;;;;;;19.75;17.63;;;20.90;99.90;;;;;;5063877;28;20975;-56
2021/07/17 09:35:27;;;;;;;17.50;15.52;;;20.90;99.90;;;;;;5056133;28;20342;-56
2021/07/17 09:37:55;;;;;;;19.30;16.23;;;20.90;99.90;;;;;;5058212;28;20271;-57
2021/07/17 09:40:21;;;;;;;19.88;15.02;;;20.90;99.90;;;;;;5063361;28;20760;-57
2021/07/17 09:42:47;;;;;;;17.33;15.20;;;21.10;99.90;;;;;;5065555;28;20197;-55
2021/07/17 09:45:31;;;;;;;18.80;14.60;;;20.80;99.90;;;;;;5057773;28;20266;-56
2021/07/17 09:47:56;;;;;;;20.92;15.00;;;20.80;99.90;;;;;;5058726;28;20208;-56
2021/07/17 09:50:22;;;;;;;17.20;15.40;;;20.90;99.90;;;;;;5059173;28;20200;-55
2021/07/17 09:52:48;;;;;;;16.90;15.30;;;20.70;99.90;;;;;;5060432;28;20185;-56
2021/07/17 09:55:16;;;;;;;17.67;14.87;;;20.60;99.90;;;;;;5065952;28;20184;-56
2021/07/17 09:57:43;;;;;;;18.42;14.05;;;20.70;99.90;;;;;;5062722;28;20322;-56
2021/07/17 10:00:13;;;;;;;17.77;14.50;;;20.70;99.90;;;;;;5048653;28;20572;-59
2021/07/17 10:02:40;;;;;;;16.92;14.18;;;20.60;99.90;;;;;;5062035;28;20184;-57
2021/07/17 10:05:07;;;;;;;19.63;16.35;;;20.70;99.90;;;;;;5065151;28;20185;-56
2021/07/17 10:07:33;;;;;;;18.48;16.48;;;20.80;99.90;;;;;;5065567;28;20211;-56
2021/07/17 10:09:59;;;;;;;20.87;17.07;;;20.80;99.90;;;;;;5059775;28;20197;-56
2021/07/17 10:12:39;;;;;;;17.93;15.43;;;20.90;99.90;;;;;;5060049;28;20432;-56
2021/07/17 10:15:13;;;;;;;18.95;14.77;;;21.10;99.90;;;;;;5052671;28;20204;-56
2021/07/17 10:17:41;;;;;;;17.08;15.27;;;21.30;99.90;;;;;;5058519;28;20181;-57
2021/07/17 10:20:15;;;;;;;19.00;14.65;;;21.30;99.90;;;;;;5058469;28;20575;-56
2021/07/17 10:22:42;;;;;;;17.52;14.90;;;21.50;99.90;;;;;;5055796;28;20215;-56
2021/07/17 10:25:10;;;;;;;17.92;16.13;;;21.50;99.90;;;;;;5062748;28;20201;-57
2021/07/17 10:27:37;;;;;;;17.75;15.48;;;21.60;99.90;;;;;;5050165;28;20201;-57
2021/07/17 10:30:07;;;;;;;20.35;14.82;;;21.80;99.90;;;;;;5054260;28;20194;-56
2021/07/17 10:32:33;;;;;;;20.92;15.90;;;21.80;99.90;;;;;;5051840;28;20181;-57
2021/07/17 10:34:59;;;;;;;17.42;14.75;;;21.90;99.90;;;;;;5061478;28;20542;-57
2021/07/17 10:37:29;;;;;;;17.20;15.33;;;21.90;99.90;;;;;;5062665;28;20218;-56
2021/07/17 10:40:15;;;;;;;20.48;14.88;;;22.00;99.90;;;;;;5061622;28;20209;-57
2021/07/17 10:42:54;;;;;;;17.25;15.43;;;22.10;99.90;;;;;;5061199;28;20181;-57
2021/07/17 10:45:37;;;;;;;17.80;15.50;;;22.20;99.90;;;;;;5060785;28;20181;-56
2021/07/17 10:48:20;;;;;;;16.40;14.70;;;22.30;99.90;;;;;;5058903;28;20561;-57
2021/07/17 10:50:46;;;;;;;16.77;15.07;;;22.40;99.90;;;;;;5064211;28;20459;-57
2021/07/17 10:53:50;;;;;;;18.00;16.00;;;22.30;99.90;;;;;;5056403;28;20561;-56
2021/07/17 10:56:27;;;;;;;17.20;15.07;;;22.20;99.90;;;;;;5055948;28;20181;-57
2021/07/17 10:58:57;;;;;;;16.33;14.67;;;22.20;99.90;;;;;;5065749;28;20473;-57
2021/07/17 11:01:24;;;;;;;17.27;15.30;;;22.20;99.90;;;;;;5056704;28;20444;-57
2021/07/17 11:03:50;;;;;;;17.98;15.10;;;22.30;99.90;;;;;;5059259;28;20186;-57
2021/07/17 11:06:26;;;;;;;18.00;16.10;;;22.20;99.90;;;;;;5057694;28;20186;-58
2021/07/17 11:08:53;;;;;;;19.13;16.30;;;22.20;99.90;;;;;;5051545;28;20566;-57
2021/07/17 11:11:28;;;;;;;18.88;15.95;;;22.30;99.90;;;;;;5063003;28;20231;-57
2021/07/17 11:14:13;;;;;;;16.90;15.10;;;22.20;99.90;;;;;;5057839;28;20181;-57
2021/07/17 11:16:46;;;;;;;18.40;15.32;;;22.10;99.90;;;;;;5061518;28;20600;-58
2021/07/17 11:19:28;;;;;;;18.35;14.90;;;22.10;99.90;;;;;;5063822;28;20296;-57
2021/07/17 11:21:55;;;;;;;17.50;15.68;;;22.30;99.90;;;;;;5053701;28;20189;-57
2021/07/17 11:24:25;;;;;;;17.23;15.52;;;22.00;99.90;;;;;;5064155;28;20185;-58
2021/07/17 11:27:06;;;;;;;17.52;15.73;;;22.10;99.90;;;;;;5060758;28;20173;-57
2021/07/17 11:29:39;;;;;;;16.43;14.70;;;22.20;99.90;;;;;;5061871;28;20227;-57
2021/07/17 11:32:09;;;;;;;17.98;16.17;;;22.30;99.90;;;;;;5062998;28;20431;-57
2021/07/17 11:34:55;;;;;;;15.27;13.73;;;22.40;99.90;;;;;;5059686;28;20292;-57
2021/07/17 11:37:27;;;;;;;16.88;15.02;;;22.40;99.90;;;;;;5061168;28;20192;-57
2021/07/17 11:39:57;;;;;;;16.13;14.43;;;22.50;99.90;;;;;;5059131;28;20221;-56
2021/07/17 11:42:23;;;;;;;19.10;17.10;;;22.50;99.90;;;;;;5060198;28;20533;-56
2021/07/17 11:44:55;;;;;;;17.47;15.63;;;22.20;99.90;;;;;;5053955;28;20447;-58
2021/07/17 11:47:22;;;;;;;18.37;15.67;;;22.50;99.90;;;;;;5066659;28;20462;-57
2021/07/17 11:49:52;;;;;;;20.50;14.20;;;22.70;99.90;;;;;;5059408;28;20521;-57
2021/07/17 11:52:29;;;;;;;17.90;14.82;;;22.70;99.90;;;;;;5065575;28;20807;-56
2021/07/17 11:54:58;;;;;;;15.97;14.47;;;22.50;99.90;;;;;;5054757;28;20181;-56
2021/07/17 11:57:26;;;;;;;20.88;15.07;;;22.50;99.90;;;;;;5064048;28;20728;-56
2021/07/17 11:59:54;;;;;;;16.15;14.43;;;22.50;99.90;;;;;;5057114;28;20209;-56
2021/07/17 12:02:22;;;;;;;16.42;14.18;;;22.70;99.90;;;;;;5063381;28;20185;-57
2021/07/17 12:04:53;;;;;;;16.10;14.50;;;22.70;99.90;;;;;;5062414;28;20189;-56
2021/07/17 12:07:28;;;;;;;16.45;14.95;;;22.70;99.90;;;;;;5061674;28;20294;-56
2021/07/17 12:09:56;;;;;;;16.33;13.87;;;22.70;99.90;;;;;;5061614;28;20287;-56
2021/07/17 12:12:30;;;;;;;16.50;14.80;;;22.80;99.90;;;;;;5058535;28;20435;-56
2021/07/17 12:15:01;;;;;;;16.00;14.33;;;22.70;99.90;;;;;;5060582;28;20274;-56
2021/07/17 12:17:27;;;;;;;16.00;14.13;;;22.70;99.90;;;;;;5069256;28;20509;-56
2021/07/17 12:20:12;;;;;;;14.90;13.50;;;22.90;99.90;;;;;;5065093;28;21238;-56
2021/07/17 12:22:48;;;;;;;15.30;13.73;;;22.90;99.90;;;;;;5067858;28;20186;-56
2021/07/17 12:25:16;;;;;;;17.80;14.77;;;22.80;99.90;;;;;;5061874;28;20263;-57
2021/07/17 12:28:01;;;;;;;15.85;14.15;;;22.80;99.90;;;;;;5062045;28;20215;-56
2021/07/17 12:30:30;;;;;;;17.10;14.23;;;23.00;99.90;;;;;;5058564;28;20442;-56